Time,TemperatureF,DewpointF,PressureIn,WindDirection,WindDirectionDegrees,WindSpeedMPH,WindSpeedGustMPH,Humidity,HourlyPrecipIn,Conditions,Clouds,dailyrainin,SoftwareType,DateUTC
2013-05-12 00:01:00,56.8,52.9,0.00,WNW,293,0.0,1.7,87,0.00,,,0.26,WUHU216HW,2013-05-12 04:01:00,
2013-05-12 00:06:00,56.4,52.6,0.00,West,270,0.0,5.5,87,0.00,,,0.00,WUHU216HW,2013-05-12 04:06:00,
2013-05-12 00:11:00,56.4,52.6,0.00,West,270,0.0,5.5,87,0.00,,,0.00,WUHU216HW,2013-05-12 04:11:00,
2013-05-12 00:16:00,56.3,52.4,0.00,West,270,0.0,0.0,87,0.00,,,0.00,WUHU216HW,2013-05-12 04:16:00,
2013-05-12 00:21:00,56.1,52.2,0.00,WSW,248,0.0,0.0,87,0.00,,,0.00,WUHU216HW,2013-05-12 04:21:00,
2013-05-12 00:26:00,55.9,52.0,0.00,WSW,248,0.0,0.0,87,0.00,,,0.00,WUHU216HW,2013-05-12 04:26:00,
2013-05-12 00:31:00,55.7,51.9,0.00,West,270,0.0,0.0,87,0.00,,,0.00,WUHU216HW,2013-05-12 04:31:00,
2013-05-12 00:36:00,55.5,51.7,0.00,WNW,293,0.0,1.3,87,0.00,,,0.00,WUHU216HW,2013-05-12 04:36:00,
2013-05-12 00:41:00,55.2,51.5,0.00,NNE,23,0.0,1.3,87,0.00,,,0.00,WUHU216HW,2013-05-12 04:41:00,
2013-05-12 00:46:00,55.2,51.3,0.00,SE,135,0.0,1.7,87,0.00,,,0.00,WUHU216HW,2013-05-12 04:46:00,
2013-05-12 00:51:00,55.0,50.8,0.00,WSW,248,0.0,1.7,86,0.00,,,0.00,WUHU216HW,2013-05-12 04:51:00,
2013-05-12 00:56:00,55.0,50.8,0.00,WSW,248,0.0,0.0,86,0.00,,,0.00,WUHU216HW,2013-05-12 04:56:00,
2013-05-12 01:01:00,54.8,50.7,0.00,West,270,0.0,0.0,86,0.00,,,0.00,WUHU216HW,2013-05-12 05:01:00,
2013-05-12 01:06:00,54.6,50.5,0.00,West,270,0.0,0.0,86,0.00,,,0.00,WUHU216HW,2013-05-12 05:06:00,
2013-05-12 01:11:00,54.5,50.3,0.00,SSE,158,0.0,0.0,86,0.00,,,0.00,WUHU216HW,2013-05-12 05:11:00,
2013-05-12 01:16:00,54.3,50.1,0.00,South,180,0.0,0.0,86,0.00,,,0.00,WUHU216HW,2013-05-12 05:16:00,
2013-05-12 01:21:00,54.3,50.1,0.00,South,180,0.0,0.0,86,0.00,,,0.00,WUHU216HW,2013-05-12 05:21:00,
2013-05-12 01:26:00,54.3,50.4,0.00,WNW,293,0.0,1.1,87,0.00,,,0.00,WUHU216HW,2013-05-12 05:26:00,
2013-05-12 01:31:00,54.3,50.1,0.00,West,270,0.0,1.1,86,0.00,,,0.00,WUHU216HW,2013-05-12 05:31:00,
2013-05-12 01:36:00,54.3,50.1,0.00,SSE,158,0.0,0.0,86,0.00,,,0.00,WUHU216HW,2013-05-12 05:36:00,
2013-05-12 01:41:00,54.3,50.1,0.00,WNW,293,0.0,0.0,86,0.00,,,0.00,WUHU216HW,2013-05-12 05:41:00,
2013-05-12 01:46:00,54.1,50.0,0.00,WNW,293,0.0,0.0,86,0.00,,,0.00,WUHU216HW,2013-05-12 05:46:00,
2013-05-12 01:51:00,54.1,50.0,0.00,ESE,113,0.0,0.0,86,0.00,,,0.00,WUHU216HW,2013-05-12 05:51:00,
2013-05-12 01:56:00,53.9,49.8,0.00,ESE,113,0.0,0.0,86,0.00,,,0.00,WUHU216HW,2013-05-12 05:56:00,
2013-05-12 02:01:00,53.7,49.6,0.00,SE,135,0.0,0.0,86,0.00,,,0.00,WUHU216HW,2013-05-12 06:01:00,
2013-05-12 02:06:00,53.7,49.6,0.00,SW,225,0.0,6.9,86,0.00,,,0.00,WUHU216HW,2013-05-12 06:06:00,
2013-05-12 02:11:00,53.4,49.3,0.00,West,270,2.6,6.9,86,0.00,,,0.00,WUHU216HW,2013-05-12 06:11:00,
2013-05-12 02:16:00,53.4,49.3,0.00,SW,225,0.0,2.6,86,0.00,,,0.00,WUHU216HW,2013-05-12 06:16:00,
2013-05-12 02:21:00,53.2,49.1,0.00,SW,225,0.0,0.0,86,0.00,,,0.00,WUHU216HW,2013-05-12 06:21:00,
2013-05-12 02:26:00,53.0,48.9,0.00,SW,225,0.0,0.0,86,0.00,,,0.00,WUHU216HW,2013-05-12 06:26:00,
2013-05-12 02:31:00,52.8,48.7,0.00,SW,225,0.0,0.0,86,0.00,,,0.00,WUHU216HW,2013-05-12 06:31:00,
2013-05-12 02:36:00,52.7,48.5,0.00,SW,225,0.0,0.0,86,0.00,,,0.00,WUHU216HW,2013-05-12 06:36:00,
2013-05-12 02:41:00,52.5,48.4,0.00,SW,225,0.0,0.0,86,0.00,,,0.00,WUHU216HW,2013-05-12 06:41:00,
2013-05-12 02:46:00,52.3,48.2,0.00,SSW,203,0.0,0.0,86,0.00,,,0.00,WUHU216HW,2013-05-12 06:46:00,
2013-05-12 02:51:00,52.3,48.0,0.00,SSW,203,0.0,0.0,86,0.00,,,0.00,WUHU216HW,2013-05-12 06:51:00,
2013-05-12 02:56:00,52.1,48.0,0.00,WNW,293,0.0,1.5,86,0.00,,,0.00,WUHU216HW,2013-05-12 06:56:00,
2013-05-12 03:01:00,51.9,47.8,0.00,WSW,248,0.0,1.5,86,0.00,,,0.00,WUHU216HW,2013-05-12 07:01:00,
2013-05-12 03:06:00,51.9,47.8,0.00,WNW,293,0.0,0.0,86,0.00,,,0.00,WUHU216HW,2013-05-12 07:06:00,
2013-05-12 03:11:00,51.8,47.6,0.00,WNW,293,0.0,0.0,86,0.00,,,0.00,WUHU216HW,2013-05-12 07:11:00,
2013-05-12 03:16:00,51.6,47.5,0.00,WNW,293,0.0,0.0,86,0.00,,,0.00,WUHU216HW,2013-05-12 07:16:00,
2013-05-12 03:21:00,51.6,47.5,0.00,NW,315,0.0,3.8,86,0.00,,,0.00,WUHU216HW,2013-05-12 07:21:00,
2013-05-12 03:26:00,51.6,47.5,0.00,NW,315,0.0,3.8,86,0.00,,,0.00,WUHU216HW,2013-05-12 07:26:00,
2013-05-12 03:31:00,51.6,47.5,0.00,NW,315,0.0,0.0,86,0.00,,,0.00,WUHU216HW,2013-05-12 07:31:00,
2013-05-12 03:36:00,51.6,47.5,0.00,NW,315,0.0,0.0,86,0.00,,,0.00,WUHU216HW,2013-05-12 07:36:00,
2013-05-12 03:41:00,51.6,47.5,0.00,NW,315,0.0,0.0,86,0.00,,,0.00,WUHU216HW,2013-05-12 07:41:00,
2013-05-12 03:46:00,51.4,47.3,0.00,NW,315,0.0,0.0,86,0.00,,,0.00,WUHU216HW,2013-05-12 07:46:00,
2013-05-12 03:51:00,51.4,47.3,0.00,NW,315,0.0,0.0,86,0.00,,,0.00,WUHU216HW,2013-05-12 07:51:00,
2013-05-12 03:56:00,51.4,47.3,0.00,NW,315,0.0,0.0,86,0.00,,,0.00,WUHU216HW,2013-05-12 07:56:00,
2013-05-12 04:01:00,51.4,47.3,0.00,WNW,293,0.0,0.0,86,0.00,,,0.00,WUHU216HW,2013-05-12 08:01:00,
2013-05-12 04:06:00,51.2,47.1,0.00,WNW,293,0.0,0.0,86,0.00,,,0.00,WUHU216HW,2013-05-12 08:06:00,
2013-05-12 04:11:00,51.0,46.9,0.00,WNW,293,0.0,0.0,86,0.00,,,0.00,WUHU216HW,2013-05-12 08:11:00,
2013-05-12 04:16:00,51.0,46.9,0.00,WNW,293,0.0,0.0,86,0.00,,,0.00,WUHU216HW,2013-05-12 08:16:00,
2013-05-12 04:21:00,50.9,46.7,0.00,WNW,293,0.0,0.0,86,0.00,,,0.00,WUHU216HW,2013-05-12 08:21:00,
2013-05-12 04:26:00,50.9,46.7,0.00,NNE,23,0.0,0.0,86,0.00,,,0.00,WUHU216HW,2013-05-12 08:26:00,
2013-05-12 04:31:00,50.9,46.6,0.00,NNE,23,0.0,0.0,86,0.00,,,0.00,WUHU216HW,2013-05-12 08:31:00,
2013-05-12 04:36:00,50.7,46.6,0.00,NNE,23,0.0,0.0,87,0.00,,,0.00,WUHU216HW,2013-05-12 08:36:00,
2013-05-12 04:41:00,50.9,47.1,0.00,NNE,23,0.0,0.0,87,0.00,,,0.00,WUHU216HW,2013-05-12 08:41:00,
2013-05-12 04:46:00,50.9,47.1,0.00,WSW,248,0.0,0.0,87,0.00,,,0.00,WUHU216HW,2013-05-12 08:46:00,
2013-05-12 04:51:00,51.0,47.2,0.00,WSW,248,0.0,0.0,87,0.00,,,0.00,WUHU216HW,2013-05-12 08:51:00,
2013-05-12 04:56:00,51.2,47.4,0.00,WNW,293,0.0,0.0,87,0.00,,,0.00,WUHU216HW,2013-05-12 08:56:00,
2013-05-12 05:01:00,51.4,47.6,0.00,West,270,0.0,0.0,87,0.00,,,0.00,WUHU216HW,2013-05-12 09:01:00,
2013-05-12 05:06:00,51.4,47.6,0.00,SSE,158,0.0,0.0,87,0.00,,,0.00,WUHU216HW,2013-05-12 09:06:00,
2013-05-12 05:11:00,51.4,47.6,0.00,SSE,158,0.0,0.0,87,0.00,,,0.00,WUHU216HW,2013-05-12 09:11:00,
2013-05-12 05:16:00,51.6,47.8,0.00,SSE,158,0.0,0.0,87,0.00,,,0.00,WUHU216HW,2013-05-12 09:16:00,
2013-05-12 05:21:00,51.6,47.8,0.00,SSE,158,0.0,0.0,87,0.00,,,0.00,WUHU216HW,2013-05-12 09:21:00,
2013-05-12 05:26:00,51.6,47.8,0.00,SSE,158,0.0,0.0,87,0.00,,,0.00,WUHU216HW,2013-05-12 09:26:00,
2013-05-12 05:31:00,51.6,47.8,0.00,SSW,203,0.0,0.0,87,0.00,,,0.00,WUHU216HW,2013-05-12 09:31:00,
2013-05-12 05:36:00,51.6,47.8,0.00,SSW,203,0.0,0.0,87,0.00,,,0.00,WUHU216HW,2013-05-12 09:36:00,
2013-05-12 05:41:00,51.6,47.8,0.00,SSW,203,0.0,0.0,87,0.00,,,0.00,WUHU216HW,2013-05-12 09:41:00,
2013-05-12 05:46:00,51.6,47.8,0.00,SSW,203,0.0,0.0,87,0.00,,,0.00,WUHU216HW,2013-05-12 09:46:00,
2013-05-12 05:51:00,51.6,47.8,0.00,SSW,203,0.0,0.0,87,0.00,,,0.00,WUHU216HW,2013-05-12 09:51:00,
2013-05-12 05:56:00,51.6,47.8,0.00,SSW,203,0.0,0.0,87,0.00,,,0.00,WUHU216HW,2013-05-12 09:56:00,
2013-05-12 06:01:00,51.6,47.8,0.00,WSW,248,0.0,0.0,87,0.00,,,0.00,WUHU216HW,2013-05-12 10:01:00,
2013-05-12 06:06:00,51.8,48.0,0.00,WSW,248,0.0,0.0,87,0.00,,,0.00,WUHU216HW,2013-05-12 10:06:00,
2013-05-12 06:11:00,51.8,48.0,0.00,WSW,248,0.0,0.0,87,0.00,,,0.00,WUHU216HW,2013-05-12 10:11:00,
2013-05-12 06:17:00,51.8,48.0,0.00,WSW,248,0.0,0.0,87,0.00,,,0.00,WUHU216HW,2013-05-12 10:17:00,
2013-05-12 06:21:00,51.8,48.0,0.00,East,90,0.0,0.0,87,0.00,,,0.00,WUHU216HW,2013-05-12 10:21:00,
2013-05-12 06:27:00,51.9,48.1,0.00,East,90,0.0,0.0,87,0.00,,,0.00,WUHU216HW,2013-05-12 10:27:00,
2013-05-12 06:31:00,51.9,48.1,0.00,South,180,0.0,0.0,87,0.00,,,0.00,WUHU216HW,2013-05-12 10:31:00,
2013-05-12 06:37:00,51.9,48.1,0.00,WSW,248,0.0,0.0,87,0.00,,,0.00,WUHU216HW,2013-05-12 10:37:00,
2013-05-12 06:42:00,51.9,48.1,0.00,WSW,248,0.0,0.0,87,0.00,,,0.00,WUHU216HW,2013-05-12 10:42:00,
2013-05-12 06:47:00,51.9,48.1,0.00,WSW,248,0.0,0.0,87,0.00,,,0.00,WUHU216HW,2013-05-12 10:47:00,
2013-05-12 06:52:00,51.8,48.0,0.00,WSW,248,0.0,0.0,87,0.00,,,0.00,WUHU216HW,2013-05-12 10:52:00,
2013-05-12 06:57:00,51.8,48.0,0.00,WSW,248,0.0,0.0,87,0.00,,,0.00,WUHU216HW,2013-05-12 10:57:00,
2013-05-12 07:02:00,51.8,48.0,0.00,WSW,248,0.0,0.0,87,0.00,,,0.00,WUHU216HW,2013-05-12 11:02:00,
2013-05-12 07:07:00,51.8,48.0,0.00,SW,225,0.0,0.0,87,0.00,,,0.00,WUHU216HW,2013-05-12 11:07:00,
2013-05-12 07:12:00,51.9,48.0,0.00,SW,225,0.0,0.0,87,0.00,,,0.00,WUHU216HW,2013-05-12 11:12:00,
2013-05-12 07:17:00,51.9,48.1,0.00,SW,225,0.0,0.0,87,0.00,,,0.00,WUHU216HW,2013-05-12 11:17:00,
2013-05-12 07:22:00,52.1,48.3,0.00,ESE,113,0.0,0.0,87,0.00,,,0.00,WUHU216HW,2013-05-12 11:22:00,
2013-05-12 07:27:00,52.1,48.3,0.00,ESE,113,0.0,0.0,87,0.00,,,0.00,WUHU216HW,2013-05-12 11:27:00,
2013-05-12 07:32:00,52.3,48.5,0.00,ESE,113,0.0,0.0,87,0.00,,,0.00,WUHU216HW,2013-05-12 11:32:00,
2013-05-12 07:37:00,52.5,48.7,0.00,ESE,113,0.0,0.0,87,0.00,,,0.00,WUHU216HW,2013-05-12 11:37:00,
2013-05-12 07:42:00,52.7,48.9,0.00,ESE,113,0.0,0.0,87,0.00,,,0.00,WUHU216HW,2013-05-12 11:42:00,
2013-05-12 07:47:00,52.8,48.9,0.00,South,180,0.0,0.0,87,0.00,,,0.00,WUHU216HW,2013-05-12 11:47:00,
2013-05-12 07:52:00,52.8,49.0,0.00,West,270,0.0,0.0,87,0.00,,,0.00,WUHU216HW,2013-05-12 11:52:00,
2013-05-12 07:57:00,52.8,49.0,0.00,West,270,0.0,0.0,87,0.00,,,0.00,WUHU216HW,2013-05-12 11:57:00,
2013-05-12 08:02:00,52.8,48.7,0.00,West,270,0.0,0.0,86,0.00,,,0.00,WUHU216HW,2013-05-12 12:02:00,
2013-05-12 08:07:00,52.8,48.7,0.00,West,270,0.0,2.9,86,0.00,,,0.00,WUHU216HW,2013-05-12 12:07:00,
2013-05-12 08:12:00,52.8,48.7,0.00,SSE,158,0.0,2.9,86,0.00,,,0.00,WUHU216HW,2013-05-12 12:12:00,
2013-05-12 08:17:00,52.7,48.2,0.00,WSW,248,0.0,0.0,85,0.00,,,0.00,WUHU216HW,2013-05-12 12:17:00,
2013-05-12 08:22:00,52.5,48.1,0.00,NW,315,0.0,0.0,85,0.00,,,0.00,WUHU216HW,2013-05-12 12:22:00,
2013-05-12 08:27:00,52.5,47.6,0.00,NW,315,2.0,2.0,84,0.00,,,0.00,WUHU216HW,2013-05-12 12:27:00,
2013-05-12 08:32:00,52.3,47.6,0.00,SSW,203,0.0,2.0,84,0.00,,,0.00,WUHU216HW,2013-05-12 12:32:00,
2013-05-12 08:37:00,52.3,47.3,0.00,WNW,293,0.0,1.3,83,0.00,,,0.00,WUHU216HW,2013-05-12 12:37:00,
2013-05-12 08:42:00,52.3,47.3,0.00,SW,225,0.0,1.3,83,0.00,,,0.00,WUHU216HW,2013-05-12 12:42:00,
2013-05-12 08:47:00,52.3,47.3,0.00,SW,225,0.0,0.0,83,0.00,,,0.00,WUHU216HW,2013-05-12 12:47:00,
2013-05-12 08:52:00,52.3,47.1,0.00,SW,225,0.0,0.0,82,0.00,,,0.00,WUHU216HW,2013-05-12 12:52:00,
2013-05-12 08:57:00,52.5,47.1,0.00,South,180,0.0,0.0,82,0.00,,,0.00,WUHU216HW,2013-05-12 12:57:00,
2013-05-12 09:02:00,52.7,46.8,0.00,SSE,158,0.0,0.0,81,0.00,,,0.00,WUHU216HW,2013-05-12 13:02:00,
2013-05-12 09:07:00,52.5,46.5,0.00,NW,315,0.0,0.0,80,0.00,,,0.00,WUHU216HW,2013-05-12 13:07:00,
2013-05-12 09:12:00,52.5,46.5,0.00,WSW,248,0.0,0.0,80,0.00,,,0.00,WUHU216HW,2013-05-12 13:12:00,
2013-05-12 09:17:00,52.5,46.5,0.00,WNW,293,0.0,0.0,80,0.00,,,0.00,WUHU216HW,2013-05-12 13:17:00,
2013-05-12 09:22:00,52.5,46.2,0.00,WNW,293,0.0,5.5,79,0.00,,,0.00,WUHU216HW,2013-05-12 13:22:00,
2013-05-12 09:27:00,52.7,46.0,0.00,WNW,293,0.0,5.5,78,0.00,,,0.00,WUHU216HW,2013-05-12 13:27:00,
2013-05-12 09:32:00,52.8,46.0,0.00,SSW,203,0.0,2.9,78,0.00,,,0.00,WUHU216HW,2013-05-12 13:32:00,
2013-05-12 09:37:00,52.8,45.5,0.00,WNW,293,0.0,1.7,76,0.00,,,0.00,WUHU216HW,2013-05-12 13:37:00,
2013-05-12 09:42:00,52.8,45.5,0.00,NW,315,0.0,1.7,76,0.00,,,0.00,WUHU216HW,2013-05-12 13:42:00,
2013-05-12 09:47:00,53.2,45.8,0.00,SSW,203,0.0,0.0,76,0.00,,,0.00,WUHU216HW,2013-05-12 13:47:00,
2013-05-12 09:52:00,53.4,46.0,0.00,SE,135,0.0,1.1,76,0.00,,,0.00,WUHU216HW,2013-05-12 13:52:00,
2013-05-12 09:57:00,53.7,46.3,0.00,NW,315,0.0,4.6,76,0.00,,,0.00,WUHU216HW,2013-05-12 13:57:00,
2013-05-12 10:02:00,53.9,46.5,0.00,SSE,158,0.0,4.6,76,0.00,,,0.00,WUHU216HW,2013-05-12 14:02:00,
2013-05-12 10:07:00,54.1,46.7,0.00,WNW,293,3.5,3.5,75,0.00,,,0.00,WUHU216HW,2013-05-12 14:07:00,
2013-05-12 10:12:00,54.3,46.1,0.00,WNW,293,1.7,3.5,74,0.00,,,0.00,WUHU216HW,2013-05-12 14:12:00,
2013-05-12 10:17:00,54.3,46.3,0.00,NNW,338,2.4,5.3,74,0.00,,,0.00,WUHU216HW,2013-05-12 14:17:00,
2013-05-12 10:22:00,54.6,46.5,0.00,North,0,0.0,5.3,74,0.00,,,0.00,WUHU216HW,2013-05-12 14:22:00,
2013-05-12 10:27:00,55.0,46.5,0.00,NW,315,4.6,7.1,73,0.00,,,0.00,WUHU216HW,2013-05-12 14:27:00,
2013-05-12 10:32:00,55.2,46.7,0.00,South,180,0.0,7.1,73,0.00,,,0.00,WUHU216HW,2013-05-12 14:32:00,
2013-05-12 10:37:00,55.5,46.7,0.00,South,180,0.8,5.8,72,0.00,,,0.00,WUHU216HW,2013-05-12 14:37:00,
2013-05-12 10:42:00,55.5,46.7,0.00,SE,135,0.0,5.8,72,0.00,,,0.00,WUHU216HW,2013-05-12 14:42:00,
2013-05-12 10:47:00,55.9,46.6,0.00,SSW,203,0.0,1.3,71,0.00,,,0.00,WUHU216HW,2013-05-12 14:47:00,
2013-05-12 10:52:00,56.1,47.1,0.00,SSW,203,4.4,4.4,72,0.00,,,0.00,WUHU216HW,2013-05-12 14:52:00,
2013-05-12 10:57:00,56.3,46.6,0.00,West,270,0.0,4.4,70,0.00,,,0.00,WUHU216HW,2013-05-12 14:57:00,
2013-05-12 11:02:00,56.8,47.4,0.00,SSE,158,0.0,1.5,71,0.00,,,0.00,WUHU216HW,2013-05-12 15:02:00,
2013-05-12 11:07:00,57.0,47.3,0.00,WNW,293,2.6,4.2,70,0.00,,,0.00,WUHU216HW,2013-05-12 15:07:00,
2013-05-12 11:12:00,57.2,47.0,0.00,NNW,338,0.0,4.2,69,0.00,,,0.00,WUHU216HW,2013-05-12 15:12:00,
2013-05-12 11:17:00,57.0,46.5,0.00,SE,135,6.9,6.9,68,0.00,,,0.00,WUHU216HW,2013-05-12 15:17:00,
2013-05-12 11:22:00,57.0,45.7,0.00,WSW,248,0.0,6.9,66,0.00,,,0.00,WUHU216HW,2013-05-12 15:22:00,
2013-05-12 11:27:00,57.3,46.0,0.00,SSW,203,0.0,3.3,66,0.00,,,0.00,WUHU216HW,2013-05-12 15:27:00,
2013-05-12 11:32:00,57.3,45.2,0.00,SSE,158,0.0,2.4,64,0.00,,,0.00,WUHU216HW,2013-05-12 15:32:00,
2013-05-12 11:37:00,57.3,44.8,0.00,SSW,203,0.0,3.1,63,0.00,,,0.00,WUHU216HW,2013-05-12 15:37:00,
2013-05-12 11:42:00,57.5,45.0,0.00,ESE,113,0.0,3.1,63,0.00,,,0.00,WUHU216HW,2013-05-12 15:42:00,
2013-05-12 11:47:00,57.7,44.7,0.00,WNW,293,0.0,1.7,62,0.00,,,0.00,WUHU216HW,2013-05-12 15:47:00,
2013-05-12 11:52:00,57.7,44.4,0.00,SE,135,0.0,5.3,61,0.00,,,0.00,WUHU216HW,2013-05-12 15:52:00,
2013-05-12 11:57:00,57.3,44.0,0.00,WNW,293,2.2,5.3,61,0.00,,,0.00,WUHU216HW,2013-05-12 15:57:00,
2013-05-12 12:02:00,57.5,44.2,0.00,SE,135,0.0,2.6,61,0.00,,,0.00,WUHU216HW,2013-05-12 16:02:00,
2013-05-12 12:07:00,57.9,44.1,0.00,NW,315,3.5,3.5,60,0.00,,,0.00,WUHU216HW,2013-05-12 16:07:00,
2013-05-12 12:12:00,58.1,44.3,0.00,WNW,293,2.0,3.5,60,0.00,,,0.00,WUHU216HW,2013-05-12 16:12:00,
2013-05-12 12:17:00,57.9,44.1,0.00,WNW,293,0.0,2.0,60,0.00,,,0.00,WUHU216HW,2013-05-12 16:17:00,
2013-05-12 12:22:00,57.5,43.8,0.00,South,180,0.0,3.8,60,0.00,,,0.00,WUHU216HW,2013-05-12 16:22:00,
2013-05-12 12:27:00,57.5,43.3,0.00,South,180,2.6,5.5,59,0.00,,,0.00,WUHU216HW,2013-05-12 16:27:00,
2013-05-12 12:32:00,57.7,44.0,0.00,SE,135,3.3,5.5,60,0.00,,,0.00,WUHU216HW,2013-05-12 16:32:00,
2013-05-12 12:37:00,57.5,43.3,0.00,SSE,158,0.0,3.3,59,0.00,,,0.00,WUHU216HW,2013-05-12 16:37:00,
2013-05-12 12:42:00,57.9,44.5,0.00,SSE,158,4.0,5.1,61,0.00,,,0.00,WUHU216HW,2013-05-12 16:42:00,
2013-05-12 12:47:00,58.2,44.8,0.00,SSE,158,1.3,5.1,61,0.00,,,0.00,WUHU216HW,2013-05-12 16:47:00,
2013-05-12 12:52:00,58.8,45.3,0.00,SSE,158,0.0,4.2,61,0.00,,,0.00,WUHU216HW,2013-05-12 16:52:00,
2013-05-12 12:57:00,59.1,45.3,0.00,West,270,0.0,4.2,60,0.00,,,0.00,WUHU216HW,2013-05-12 16:57:00,
2013-05-12 13:02:00,59.5,45.1,0.00,SSW,203,0.0,4.0,59,0.00,,,0.00,WUHU216HW,2013-05-12 17:02:00,
2013-05-12 13:07:00,60.0,46.2,0.00,SSW,203,0.0,3.5,60,0.00,,,0.00,WUHU216HW,2013-05-12 17:07:00,
2013-05-12 13:12:00,60.6,47.1,0.00,SSE,158,0.0,2.0,61,0.00,,,0.00,WUHU216HW,2013-05-12 17:12:00,
2013-05-12 13:17:00,61.3,47.4,0.00,SE,135,1.3,2.2,60,0.00,,,0.00,WUHU216HW,2013-05-12 17:17:00,
2013-05-12 13:22:00,61.5,46.6,0.00,WNW,293,8.2,8.2,58,0.00,,,0.00,WUHU216HW,2013-05-12 17:22:00,
2013-05-12 13:27:00,61.1,45.3,0.00,NW,315,0.0,8.2,56,0.00,,,0.00,WUHU216HW,2013-05-12 17:27:00,
2013-05-12 13:32:00,61.1,45.8,0.00,NW,315,0.0,4.0,57,0.00,,,0.00,WUHU216HW,2013-05-12 17:32:00,
2013-05-12 13:37:00,60.9,45.6,0.00,SSE,158,0.0,4.0,57,0.00,,,0.00,WUHU216HW,2013-05-12 17:37:00,
2013-05-12 13:42:00,61.1,45.3,0.00,SSE,158,5.8,5.8,56,0.00,,,0.00,WUHU216HW,2013-05-12 17:42:00,
2013-05-12 13:47:00,61.1,45.3,0.00,SE,135,0.0,5.8,56,0.00,,,0.00,WUHU216HW,2013-05-12 17:47:00,
2013-05-12 13:52:00,61.3,45.9,0.00,SE,135,0.4,3.8,57,0.00,,,0.00,WUHU216HW,2013-05-12 17:52:00,
2013-05-12 13:57:00,61.3,45.4,0.00,ENE,68,0.0,5.3,57,0.00,,,0.00,WUHU216HW,2013-05-12 17:57:00,
2013-05-12 14:02:00,61.3,45.4,0.00,SSE,158,0.6,5.3,56,0.00,,,0.00,WUHU216HW,2013-05-12 18:02:00,
2013-05-12 14:07:00,61.3,44.9,0.00,NW,315,1.1,4.6,55,0.00,,,0.00,WUHU216HW,2013-05-12 18:07:00,
2013-05-12 14:12:00,60.9,44.1,0.00,NW,315,3.3,4.6,54,0.00,,,0.00,WUHU216HW,2013-05-12 18:12:00,
2013-05-12 14:17:00,60.9,43.5,0.00,SE,135,6.2,6.2,53,0.00,,,0.00,WUHU216HW,2013-05-12 18:17:00,
2013-05-12 14:22:00,60.9,44.1,0.00,SSE,158,0.0,6.2,54,0.00,,,0.00,WUHU216HW,2013-05-12 18:22:00,
2013-05-12 14:27:00,60.9,43.7,0.00,SE,135,0.0,2.4,53,0.00,,,0.00,WUHU216HW,2013-05-12 18:27:00,
2013-05-12 14:32:00,60.9,44.6,0.00,SE,135,0.0,2.6,55,0.00,,,0.00,WUHU216HW,2013-05-12 18:32:00,
2013-05-12 14:36:00,61.1,44.8,0.00,WNW,293,0.0,3.8,55,0.00,,,0.00,WUHU216HW,2013-05-12 18:36:00,
2013-05-12 14:42:00,60.9,44.1,0.00,West,270,2.6,3.8,54,0.00,,,0.00,WUHU216HW,2013-05-12 18:42:00,
2013-05-12 14:46:00,60.9,43.2,0.00,SE,135,0.0,2.6,52,0.00,,,0.00,WUHU216HW,2013-05-12 18:46:00,
2013-05-12 14:52:00,60.6,42.3,0.00,WNW,293,0.0,4.6,51,0.00,,,0.00,WUHU216HW,2013-05-12 18:52:00,
2013-05-12 14:56:00,60.6,43.3,0.00,SSE,158,0.8,4.6,53,0.00,,,0.00,WUHU216HW,2013-05-12 18:56:00,
2013-05-12 15:01:00,60.9,44.1,0.00,SE,135,2.0,5.3,54,0.00,,,0.00,WUHU216HW,2013-05-12 19:01:00,
2013-05-12 15:06:00,60.9,44.6,0.00,SE,135,0.0,5.3,55,0.00,,,0.00,WUHU216HW,2013-05-12 19:06:00,
2013-05-12 15:11:00,61.1,43.8,0.00,SW,225,0.0,3.1,53,0.00,,,0.00,WUHU216HW,2013-05-12 19:11:00,
2013-05-12 15:16:00,60.9,43.2,0.00,WSW,248,0.0,3.1,52,0.00,,,0.00,WUHU216HW,2013-05-12 19:16:00,
2013-05-12 15:21:00,60.9,43.2,0.00,NNE,23,0.0,3.5,52,0.00,,,0.00,WUHU216HW,2013-05-12 19:21:00,
2013-05-12 15:26:00,60.6,42.3,0.00,SSE,158,0.0,4.2,51,0.00,,,0.00,WUHU216HW,2013-05-12 19:26:00,
2013-05-12 15:31:00,60.6,42.8,0.00,NW,315,2.2,4.2,52,0.00,,,0.00,WUHU216HW,2013-05-12 19:31:00,
2013-05-12 15:36:00,60.6,42.8,0.00,SSE,158,1.5,3.5,52,0.00,,,0.00,WUHU216HW,2013-05-12 19:36:00,
2013-05-12 15:41:00,60.9,43.5,0.00,South,180,0.0,3.3,53,0.00,,,0.00,WUHU216HW,2013-05-12 19:41:00,
2013-05-12 15:46:00,60.6,42.3,0.00,SE,135,5.8,5.8,51,0.00,,,0.00,WUHU216HW,2013-05-12 19:46:00,
2013-05-12 15:51:00,60.6,42.8,0.00,SSE,158,4.2,5.8,52,0.00,,,0.00,WUHU216HW,2013-05-12 19:51:00,
2013-05-12 15:56:00,60.6,43.3,0.00,SE,135,3.1,5.3,53,0.00,,,0.00,WUHU216HW,2013-05-12 19:56:00,
2013-05-12 16:01:00,60.6,42.8,0.00,SE,135,0.0,5.8,52,0.00,,,0.00,WUHU216HW,2013-05-12 20:01:00,
2013-05-12 16:06:00,60.4,43.3,0.00,SSW,203,0.0,5.8,53,0.00,,,0.00,WUHU216HW,2013-05-12 20:06:00,
2013-05-12 16:11:00,60.6,42.8,0.00,SE,135,0.0,4.0,52,0.00,,,0.00,WUHU216HW,2013-05-12 20:11:00,
2013-05-12 16:16:00,60.4,42.7,0.00,SE,135,0.0,5.1,52,0.00,,,0.00,WUHU216HW,2013-05-12 20:16:00,
2013-05-12 16:21:00,60.4,42.2,0.00,SSE,158,2.4,5.1,51,0.00,,,0.00,WUHU216HW,2013-05-12 20:21:00,
2013-05-12 16:26:00,60.4,42.7,0.00,SE,135,0.0,4.9,52,0.00,,,0.00,WUHU216HW,2013-05-12 20:26:00,
2013-05-12 16:31:00,60.0,42.3,0.00,North,0,0.0,4.9,52,0.00,,,0.00,WUHU216HW,2013-05-12 20:31:00,
2013-05-12 16:36:00,59.9,42.2,0.00,ESE,113,2.0,3.1,52,0.00,,,0.00,WUHU216HW,2013-05-12 20:36:00,
2013-05-12 16:41:00,59.9,42.2,0.00,ENE,68,0.0,2.4,52,0.00,,,0.00,WUHU216HW,2013-05-12 20:41:00,
2013-05-12 16:46:00,59.9,42.2,0.00,WSW,248,0.0,2.4,52,0.00,,,0.00,WUHU216HW,2013-05-12 20:46:00,
2013-05-12 16:51:00,59.9,42.2,0.00,SE,135,0.0,2.9,52,0.00,,,0.00,WUHU216HW,2013-05-12 20:51:00,
2013-05-12 16:56:00,59.7,41.5,0.00,WNW,293,0.0,2.9,51,0.00,,,0.00,WUHU216HW,2013-05-12 20:56:00,
2013-05-12 17:01:00,59.7,41.1,0.00,NW,315,0.0,5.1,50,0.00,,,0.00,WUHU216HW,2013-05-12 21:01:00,
2013-05-12 17:06:00,59.5,40.9,0.00,South,180,2.0,5.1,50,0.00,,,0.00,WUHU216HW,2013-05-12 21:06:00,
2013-05-12 17:11:00,59.3,40.7,0.00,NW,315,5.3,5.3,50,0.00,,,0.00,WUHU216HW,2013-05-12 21:11:00,
2013-05-12 17:16:00,59.0,39.3,0.00,SE,135,1.7,5.3,48,0.00,,,0.00,WUHU216HW,2013-05-12 21:16:00,
2013-05-12 17:21:00,58.8,39.7,0.00,SSW,203,2.0,4.4,49,0.00,,,0.00,WUHU216HW,2013-05-12 21:21:00,
2013-05-12 17:26:00,58.8,39.7,0.00,WNW,293,0.0,4.4,49,0.00,,,0.00,WUHU216HW,2013-05-12 21:26:00,
2013-05-12 17:31:00,58.8,40.2,0.00,WNW,293,2.4,4.4,50,0.00,,,0.00,WUHU216HW,2013-05-12 21:31:00,
2013-05-12 17:36:00,58.8,40.2,0.00,ESE,113,3.1,3.5,50,0.00,,,0.00,WUHU216HW,2013-05-12 21:36:00,
2013-05-12 17:41:00,58.8,40.7,0.00,South,180,0.0,3.5,51,0.00,,,0.00,WUHU216HW,2013-05-12 21:41:00,
2013-05-12 17:46:00,58.6,40.6,0.00,SSE,158,0.0,4.0,51,0.00,,,0.00,WUHU216HW,2013-05-12 21:46:00,
2013-05-12 17:51:00,58.4,40.6,0.00,SE,135,1.3,4.0,51,0.00,,,0.00,WUHU216HW,2013-05-12 21:51:00,
2013-05-12 17:56:00,58.4,39.3,0.00,WNW,293,0.0,3.1,49,0.00,,,0.00,WUHU216HW,2013-05-12 21:56:00,
2013-05-12 18:01:00,58.2,39.2,0.00,WNW,293,0.0,4.6,49,0.00,,,0.00,WUHU216HW,2013-05-12 22:01:00,
2013-05-12 18:06:00,58.2,39.8,0.00,ESE,113,0.0,4.6,50,0.00,,,0.00,WUHU216HW,2013-05-12 22:06:00,
2013-05-12 18:11:00,58.1,38.4,0.00,ESE,113,0.0,2.4,48,0.00,,,0.00,WUHU216HW,2013-05-12 22:11:00,
2013-05-12 18:16:00,57.9,38.9,0.00,SE,135,0.0,4.2,49,0.00,,,0.00,WUHU216HW,2013-05-12 22:16:00,
2013-05-12 18:21:00,57.9,39.4,0.00,SE,135,0.8,4.2,50,0.00,,,0.00,WUHU216HW,2013-05-12 22:21:00,
2013-05-12 18:26:00,57.7,39.7,0.00,SE,135,0.0,2.9,51,0.00,,,0.00,WUHU216HW,2013-05-12 22:26:00,
2013-05-12 18:31:00,57.7,39.7,0.00,SE,135,0.0,2.9,51,0.00,,,0.00,WUHU216HW,2013-05-12 22:31:00,
2013-05-12 18:36:00,57.5,39.1,0.00,SE,135,0.0,0.0,50,0.00,,,0.00,WUHU216HW,2013-05-12 22:36:00,
2013-05-12 18:41:00,57.3,39.4,0.00,SE,135,2.0,2.0,51,0.00,,,0.00,WUHU216HW,2013-05-12 22:41:00,
2013-05-12 18:46:00,57.3,39.4,0.00,SE,135,0.0,2.0,51,0.00,,,0.00,WUHU216HW,2013-05-12 22:46:00,
2013-05-12 18:51:00,57.3,39.1,0.00,SE,135,0.0,0.0,51,0.00,,,0.00,WUHU216HW,2013-05-12 22:51:00,
2013-05-12 18:56:00,57.0,39.1,0.00,NW,315,0.0,0.8,51,0.00,,,0.00,WUHU216HW,2013-05-12 22:56:00,
2013-05-12 19:01:00,56.8,38.9,0.00,NW,315,0.0,0.8,51,0.00,,,0.00,WUHU216HW,2013-05-12 23:01:00,
2013-05-12 19:06:00,56.6,38.7,0.00,WNW,293,0.0,0.0,51,0.00,,,0.00,WUHU216HW,2013-05-12 23:06:00,
2013-05-12 19:11:00,56.4,39.0,0.00,WNW,293,0.0,0.0,52,0.00,,,0.00,WUHU216HW,2013-05-12 23:11:00,
2013-05-12 19:16:00,56.3,38.8,0.00,WSW,248,0.0,0.0,52,0.00,,,0.00,WUHU216HW,2013-05-12 23:16:00,
2013-05-12 19:21:00,56.1,38.6,0.00,ESE,113,0.0,0.0,52,0.00,,,0.00,WUHU216HW,2013-05-12 23:21:00,
2013-05-12 19:26:00,56.1,38.2,0.00,East,90,0.0,0.0,51,0.00,,,0.00,WUHU216HW,2013-05-12 23:26:00,
2013-05-12 19:31:00,55.9,38.0,0.00,SSW,203,0.0,0.0,51,0.00,,,0.00,WUHU216HW,2013-05-12 23:31:00,
2013-05-12 19:36:00,55.7,37.8,0.00,NW,315,0.0,6.4,51,0.00,,,0.00,WUHU216HW,2013-05-12 23:36:00,
2013-05-12 19:41:00,55.4,37.5,0.00,WNW,293,0.0,6.4,51,0.00,,,0.00,WUHU216HW,2013-05-12 23:41:00,
2013-05-12 19:46:00,55.2,37.3,0.00,WSW,248,0.0,0.0,51,0.00,,,0.00,WUHU216HW,2013-05-12 23:46:00,
2013-05-12 19:51:00,55.0,36.7,0.00,West,270,0.0,2.9,50,0.00,,,0.00,WUHU216HW,2013-05-12 23:51:00,
2013-05-12 19:56:00,55.0,37.1,0.00,SW,225,0.0,2.9,51,0.00,,,0.00,WUHU216HW,2013-05-12 23:56:00,
2013-05-12 20:01:00,54.6,36.8,0.00,SSW,203,0.0,0.0,51,0.00,,,0.00,WUHU216HW,2013-05-13 00:01:00,
2013-05-12 20:06:00,54.3,37.0,0.00,NW,315,0.0,0.0,52,0.00,,,0.00,WUHU216HW,2013-05-13 00:06:00,
2013-05-12 20:11:00,54.1,36.3,0.00,NW,315,0.0,0.0,51,0.00,,,0.00,WUHU216HW,2013-05-13 00:11:00,
2013-05-12 20:16:00,53.9,36.6,0.00,NW,315,0.0,0.0,52,0.00,,,0.00,WUHU216HW,2013-05-13 00:16:00,
2013-05-12 20:21:00,53.4,36.6,0.00,North,0,0.0,0.0,53,0.00,,,0.00,WUHU216HW,2013-05-13 00:21:00,
2013-05-12 20:26:00,53.2,36.4,0.00,NW,315,0.0,0.0,53,0.00,,,0.00,WUHU216HW,2013-05-13 00:26:00,
2013-05-12 20:31:00,52.7,35.9,0.00,NW,315,0.0,0.0,53,0.00,,,0.00,WUHU216HW,2013-05-13 00:31:00,
2013-05-12 20:36:00,52.3,36.1,0.00,NW,315,0.0,0.0,54,0.00,,,0.00,WUHU216HW,2013-05-13 00:36:00,
2013-05-12 20:41:00,51.9,35.7,0.00,NW,315,0.0,0.0,54,0.00,,,0.00,WUHU216HW,2013-05-13 00:41:00,
2013-05-12 20:46:00,51.6,35.8,0.00,NW,315,0.0,0.0,55,0.00,,,0.00,WUHU216HW,2013-05-13 00:46:00,
2013-05-12 20:51:00,51.0,35.4,0.00,NW,315,0.0,0.0,55,0.00,,,0.00,WUHU216HW,2013-05-13 00:51:00,
2013-05-12 20:56:00,50.7,35.0,0.00,NW,315,0.0,0.0,55,0.00,,,0.00,WUHU216HW,2013-05-13 00:56:00,
2013-05-12 21:01:00,50.3,35.2,0.00,NW,315,0.0,0.0,56,0.00,,,0.00,WUHU216HW,2013-05-13 01:01:00,
2013-05-12 21:06:00,49.8,35.1,0.00,NW,315,0.0,0.0,57,0.00,,,0.00,WUHU216HW,2013-05-13 01:06:00,
2013-05-12 21:11:00,49.6,35.4,0.00,NW,315,0.0,0.0,58,0.00,,,0.00,WUHU216HW,2013-05-13 01:11:00,
2013-05-12 21:16:00,49.1,35.4,0.00,NW,315,0.0,0.0,59,0.00,,,0.00,WUHU216HW,2013-05-13 01:16:00,
2013-05-12 21:21:00,48.9,35.2,0.00,NW,315,0.0,0.0,59,0.00,,,0.00,WUHU216HW,2013-05-13 01:21:00,
2013-05-12 21:26:00,48.5,35.3,0.00,NW,315,0.0,0.0,60,0.00,,,0.00,WUHU216HW,2013-05-13 01:26:00,
2013-05-12 21:31:00,48.2,35.0,0.00,NW,315,0.0,0.0,60,0.00,,,0.00,WUHU216HW,2013-05-13 01:31:00,
2013-05-12 21:36:00,47.8,35.0,0.00,NW,315,0.0,0.0,61,0.00,,,0.00,WUHU216HW,2013-05-13 01:36:00,
2013-05-12 21:41:00,47.4,35.0,0.00,NW,315,0.0,0.0,62,0.00,,,0.00,WUHU216HW,2013-05-13 01:41:00,
2013-05-12 21:46:00,47.1,34.7,0.00,NW,315,0.0,0.0,62,0.00,,,0.00,WUHU216HW,2013-05-13 01:46:00,
2013-05-12 21:51:00,46.9,34.9,0.00,NW,315,0.0,0.0,63,0.00,,,0.00,WUHU216HW,2013-05-13 01:51:00,
2013-05-12 21:56:00,46.5,34.6,0.00,NW,315,0.0,0.0,63,0.00,,,0.00,WUHU216HW,2013-05-13 01:56:00,
2013-05-12 22:01:00,46.2,34.6,0.00,NW,315,0.0,0.0,64,0.00,,,0.00,WUHU216HW,2013-05-13 02:01:00,
2013-05-12 22:06:00,46.0,34.8,0.00,NW,315,0.0,0.0,65,0.00,,,0.00,WUHU216HW,2013-05-13 02:06:00,
2013-05-12 22:11:00,45.6,34.5,0.00,NW,315,0.0,0.0,65,0.00,,,0.00,WUHU216HW,2013-05-13 02:11:00,
2013-05-12 22:16:00,45.5,34.7,0.00,NW,315,0.0,0.0,66,0.00,,,0.00,WUHU216HW,2013-05-13 02:16:00,
2013-05-12 22:21:00,45.3,34.5,0.00,NW,315,0.0,0.0,66,0.00,,,0.00,WUHU216HW,2013-05-13 02:21:00,
2013-05-12 22:26:00,45.3,34.5,0.00,NW,315,0.0,0.0,66,0.00,,,0.00,WUHU216HW,2013-05-13 02:26:00,
2013-05-12 22:31:00,45.3,34.9,0.00,NW,315,0.0,0.0,67,0.00,,,0.00,WUHU216HW,2013-05-13 02:31:00,
2013-05-12 22:36:00,45.1,34.8,0.00,NW,315,0.0,0.0,67,0.00,,,0.00,WUHU216HW,2013-05-13 02:36:00,
2013-05-12 22:41:00,44.7,34.8,0.00,NW,315,0.0,0.0,68,0.00,,,0.00,WUHU216HW,2013-05-13 02:41:00,
2013-05-12 22:46:00,44.6,34.6,0.00,NW,315,0.0,0.0,68,0.00,,,0.00,WUHU216HW,2013-05-13 02:46:00,
2013-05-12 22:51:00,44.4,34.4,0.00,NW,315,0.0,0.0,68,0.00,,,0.00,WUHU216HW,2013-05-13 02:51:00,
2013-05-12 22:56:00,44.2,34.7,0.00,NW,315,0.0,0.0,69,0.00,,,0.00,WUHU216HW,2013-05-13 02:56:00,
2013-05-12 23:01:00,44.0,34.5,0.00,NW,315,0.0,0.0,69,0.00,,,0.00,WUHU216HW,2013-05-13 03:01:00,
2013-05-12 23:06:00,43.8,34.7,0.00,NW,315,0.0,0.0,70,0.00,,,0.00,WUHU216HW,2013-05-13 03:06:00,
2013-05-12 23:11:00,43.7,34.6,0.00,NW,315,0.0,0.0,70,0.00,,,0.00,WUHU216HW,2013-05-13 03:11:00,
2013-05-12 23:16:00,43.5,34.4,0.00,NW,315,0.0,0.0,70,0.00,,,0.00,WUHU216HW,2013-05-13 03:16:00,
2013-05-12 23:21:00,43.3,34.2,0.00,NW,315,0.0,0.0,70,0.00,,,0.00,WUHU216HW,2013-05-13 03:21:00,
2013-05-12 23:26:00,43.1,34.1,0.00,NW,315,0.0,0.0,70,0.00,,,0.00,WUHU216HW,2013-05-13 03:26:00,
2013-05-12 23:31:00,42.9,34.2,0.00,NW,315,0.0,0.0,71,0.00,,,0.00,WUHU216HW,2013-05-13 03:31:00,
2013-05-12 23:36:00,42.6,34.2,0.00,NW,315,0.0,0.0,72,0.00,,,0.00,WUHU216HW,2013-05-13 03:36:00,
2013-05-12 23:41:00,42.9,34.6,0.00,NW,315,0.0,0.0,72,0.00,,,0.00,WUHU216HW,2013-05-13 03:41:00,
2013-05-12 23:46:00,42.9,34.6,0.00,NW,315,0.0,0.0,72,0.00,,,0.00,WUHU216HW,2013-05-13 03:46:00,
2013-05-12 23:51:00,42.6,34.2,0.00,NW,315,0.0,0.0,72,0.00,,,0.00,WUHU216HW,2013-05-13 03:51:00,
2013-05-12 23:56:00,42.4,34.0,0.00,NW,315,0.0,0.0,72,0.00,,,0.00,WUHU216HW,2013-05-13 03:56:00,